createdAt,value
2022-11-28T00:00:41.052Z,100746.53
2022-11-28T00:01:49.793Z,100743.19
2022-11-28T00:02:51.390Z,100749.19
2022-11-28T00:03:54.185Z,100743.91
2022-11-28T00:04:55.786Z,100738.63
2022-11-28T00:06:03.195Z,100740.41
2022-11-28T00:07:04.866Z,100737.78
2022-11-28T00:08:08.755Z,100745.59
2022-11-28T00:09:10.255Z,100740.31
2022-11-28T00:10:13.512Z,100731.63
2022-11-28T00:11:16.835Z,100741.34
2022-11-28T00:12:19.377Z,100724.69
2022-11-28T00:13:20.898Z,100728.28
2022-11-28T00:14:23.449Z,100737.13
2022-11-28T00:15:25.014Z,100737.28
2022-11-28T00:16:27.600Z,100732.78
2022-11-28T00:17:29.144Z,100729.34
2022-11-28T00:18:31.876Z,100724.88
2022-11-28T00:19:34.404Z,100722.22
2022-11-28T00:20:36.078Z,100717.91
2022-11-28T00:21:39.274Z,100723.06
2022-11-28T00:22:40.848Z,100721.28
2022-11-28T00:23:45.927Z,100721.28
2022-11-28T00:24:48.088Z,100719.59
2022-11-28T00:25:58.087Z,100717.91
2022-11-28T00:26:59.595Z,100714.28
2022-11-28T00:28:02.456Z,100720.44
2022-11-28T00:29:05.399Z,100717.91
2022-11-28T00:30:08.978Z,100717.91
2022-11-28T00:31:13.191Z,100717.91
2022-11-28T00:32:15.866Z,100714.28
2022-11-28T00:33:17.449Z,100717.91
2022-11-28T00:34:19.950Z,100709.00
2022-11-28T00:35:22.211Z,100711.66
2022-11-28T00:36:25.482Z,100714.28
2022-11-28T00:37:28.022Z,100711.56
2022-11-28T00:38:29.874Z,100711.56
2022-11-28T00:39:33.939Z,100694.84
2022-11-28T00:40:35.624Z,100697.50
2022-11-28T00:41:38.226Z,100696.56
2022-11-28T00:42:39.724Z,100688.72
2022-11-28T00:43:43.624Z,100696.56
2022-11-28T00:44:45.226Z,100683.44
2022-11-28T00:45:47.724Z,100684.28
2022-11-28T00:46:50.335Z,100678.16
2022-11-28T00:47:51.953Z,100690.41
2022-11-28T00:48:54.843Z,100684.28
2022-11-28T00:49:56.337Z,100676.34
2022-11-28T00:51:07.764Z,100685.22
2022-11-28T00:52:10.357Z,100683.44
2022-11-28T00:53:11.871Z,100684.28
2022-11-28T00:54:14.327Z,100674.56
2022-11-28T00:55:17.405Z,100674.56
2022-11-28T00:56:22.851Z,100670.13
2022-11-28T00:57:24.368Z,100670.97
2022-11-28T00:58:26.854Z,100664.84
2022-11-28T00:59:28.364Z,100669.28
2022-11-28T01:00:30.922Z,100667.56
2022-11-28T01:01:35.011Z,100667.56
2022-11-28T01:02:37.605Z,100661.44
2022-11-28T01:03:39.478Z,100656.28
2022-11-28T01:04:42.178Z,100654.50
2022-11-28T01:05:43.931Z,100649.19
2022-11-28T01:06:48.339Z,100650.16
2022-11-28T01:07:49.910Z,100650.16
2022-11-28T01:08:53.509Z,100650.16
2022-11-28T01:09:55.083Z,100658.06
2022-11-28T01:10:58.899Z,100651.09
2022-11-28T01:12:01.422Z,100659.03
2022-11-28T01:13:02.984Z,100652.78
2022-11-28T01:14:05.829Z,100649.44
2022-11-28T01:15:10.714Z,100655.56
2022-11-28T01:16:13.633Z,100652.91
2022-11-28T01:17:15.227Z,100660.00
2022-11-28T01:18:17.916Z,100655.56
2022-11-28T01:19:21.183Z,100653.72
2022-11-28T01:20:22.950Z,100650.28
2022-11-28T01:21:25.634Z,100646.66
2022-11-28T01:22:27.165Z,100651.00
2022-11-28T01:23:29.666Z,100646.66
2022-11-28T01:24:31.163Z,100659.03
2022-11-28T01:25:33.640Z,100659.16
2022-11-28T01:26:39.267Z,100665.28
2022-11-28T01:27:41.739Z,100657.44
2022-11-28T01:28:43.404Z,100660.00
2022-11-28T01:29:46.135Z,100660.00
2022-11-28T01:30:47.650Z,100663.59
2022-11-28T01:31:50.189Z,100662.63
2022-11-28T01:32:51.726Z,100661.78
2022-11-28T01:33:55.131Z,100660.84
2022-11-28T01:34:57.798Z,100659.03
2022-11-28T01:36:00.600Z,100655.56
2022-11-28T01:37:02.422Z,100652.91
2022-11-28T01:38:04.874Z,100665.28
2022-11-28T01:39:07.371Z,100654.72
2022-11-28T01:40:12.165Z,100660.00
2022-11-28T01:41:15.906Z,100652.91
2022-11-28T01:42:19.336Z,100656.38
2022-11-28T01:43:22.766Z,100656.38
2022-11-28T01:45:02.969Z,100650.28
2022-11-28T01:46:06.675Z,100645.00
2022-11-28T01:47:08.480Z,100644.13
2022-11-28T01:48:13.809Z,100647.72
2022-11-28T01:49:19.889Z,100639.06
2022-11-28T01:50:22.851Z,100645.00
2022-11-28T01:51:25.594Z,100655.56
2022-11-28T01:52:27.426Z,100650.28
2022-11-28T01:53:32.073Z,100647.50
2022-11-28T01:54:35.983Z,100644.84
2022-11-28T01:55:43.881Z,100642.22
2022-11-28T01:56:51.171Z,100642.22
2022-11-28T01:57:56.998Z,100624.66
2022-11-28T01:59:03.342Z,100631.53
2022-11-28T02:00:09.109Z,100630.69
2022-11-28T02:01:13.075Z,100629.00
2022-11-28T02:02:20.714Z,100620.22
2022-11-28T02:03:28.461Z,100619.38
2022-11-28T02:04:30.435Z,100624.66
2022-11-28T02:05:33.726Z,100620.34
2022-11-28T02:06:36.315Z,100630.06
2022-11-28T02:07:39.781Z,100626.59
2022-11-28T02:08:41.446Z,100617.72
2022-11-28T02:09:43.951Z,100625.63
2022-11-28T02:11:03.275Z,100616.88
2022-11-28T02:12:20.944Z,100618.56
2022-11-28T02:13:40.606Z,100624.78
2022-11-28T02:14:59.946Z,100619.59
2022-11-28T02:16:20.528Z,100621.31
2022-11-28T02:17:32.503Z,100624.88
2022-11-28T02:18:53.265Z,100625.13
2022-11-28T02:20:44.725Z,100630.41
2022-11-28T02:21:55.080Z,100630.41
2022-11-28T02:23:04.799Z,100631.38
2022-11-28T02:24:50.687Z,100632.31
2022-11-28T02:26:23.309Z,100633.88
2022-11-28T02:27:44.196Z,100625.97
2022-11-28T02:29:14.295Z,100639.06
2022-11-28T02:30:19.742Z,100636.44
2022-11-28T02:31:39.632Z,100647.72
2022-11-28T02:32:54.772Z,100646.03
2022-11-28T02:34:00.315Z,100655.66
2022-11-28T02:35:08.747Z,100653.88
2022-11-28T02:36:16.183Z,100649.44
2022-11-28T02:37:26.958Z,100651.94
2022-11-28T02:38:52.706Z,100646.56
2022-11-28T02:40:05.599Z,100645.56
2022-11-28T02:41:16.731Z,100646.44
2022-11-28T02:42:23.022Z,100635.84
2022-11-28T02:43:35.267Z,100637.66
2022-11-28T02:44:44.267Z,100636.72
2022-11-28T02:45:51.293Z,100636.72
2022-11-28T02:47:00.600Z,100629.72
2022-11-28T02:48:07.654Z,100632.50
2022-11-28T02:49:18.291Z,100644.84
2022-11-28T02:50:24.585Z,100635.22
2022-11-28T02:51:32.738Z,100642.22
2022-11-28T02:52:37.754Z,100636.94
2022-11-28T02:53:44.404Z,100633.44
2022-11-28T02:54:47.249Z,100633.44
2022-11-28T02:55:52.109Z,100625.63
2022-11-28T02:56:54.720Z,100629.94
2022-11-28T02:57:57.451Z,100624.66
2022-11-28T02:59:00.165Z,100619.38
2022-11-28T03:00:01.721Z,100606.16
2022-11-28T03:01:13.752Z,100608.81
2022-11-28T03:02:19.830Z,100601.72
2022-11-28T03:03:44.315Z,100599.09
2022-11-28T03:04:56.277Z,100596.56
2022-11-28T03:06:01.880Z,100601.00
2022-11-28T03:07:12.469Z,100606.38
2022-11-28T03:08:30.958Z,100608.31
2022-11-28T03:09:57.222Z,100611.91
2022-11-28T03:11:03.846Z,100612.75
2022-11-28T03:12:20.883Z,100605.75
2022-11-28T03:13:31.747Z,100602.31
2022-11-28T03:14:47.601Z,100608.41
2022-11-28T03:16:13.815Z,100606.75
2022-11-28T03:17:24.661Z,100610.22
2022-11-28T03:18:33.480Z,100606.00
2022-11-28T03:19:39.761Z,100605.13
2022-11-28T03:20:48.223Z,100598.91
2022-11-28T03:22:00.185Z,100592.78
2022-11-28T03:23:12.654Z,100597.13
2022-11-28T03:24:20.484Z,100605.91
2022-11-28T03:25:28.856Z,100608.53
2022-11-28T03:26:37.955Z,100617.31
2022-11-28T03:27:46.882Z,100616.47
2022-11-28T03:28:54.900Z,100609.63
2022-11-28T03:30:02.770Z,100613.06
2022-11-28T03:31:08.007Z,100613.06
2022-11-28T03:32:17.529Z,100611.41
2022-11-28T03:33:21.248Z,100617.53
2022-11-28T03:34:27.353Z,100613.06
2022-11-28T03:35:35.347Z,100606.97
2022-11-28T03:36:43.850Z,100609.47
2022-11-28T03:37:50.629Z,100615.63
2022-11-28T03:38:58.190Z,100607.78
2022-11-28T03:40:03.835Z,100610.44
2022-11-28T03:41:10.554Z,100613.06
2022-11-28T03:42:17.799Z,100619.09
2022-11-28T03:43:21.911Z,100609.63
2022-11-28T03:44:28.746Z,100609.47
2022-11-28T03:45:37.450Z,100608.63
2022-11-28T03:46:46.011Z,100612.13
2022-11-28T03:47:54.655Z,100609.47
2022-11-28T03:48:59.894Z,100598.06
2022-11-28T03:50:06.549Z,100598.91
2022-11-28T03:51:14.583Z,100597.97
2022-11-28T03:52:21.606Z,100584.75
2022-11-28T03:53:28.472Z,100583.06
2022-11-28T03:54:37.352Z,100589.19
2022-11-28T03:55:44.518Z,100584.97
2022-11-28T03:56:52.043Z,100584.13
2022-11-28T03:58:00.935Z,100586.88
2022-11-28T03:59:07.603Z,100594.81
2022-11-28T04:00:13.242Z,100601.91
2022-11-28T04:01:28.782Z,100598.41
2022-11-28T04:02:37.604Z,100605.38
2022-11-28T04:03:48.248Z,100601.91
2022-11-28T04:04:56.605Z,100602.72
2022-11-28T04:06:02.306Z,100601.06
2022-11-28T04:07:17.270Z,100599.13
2022-11-28T04:08:25.127Z,100597.44
2022-11-28T04:09:38.786Z,100593.84
2022-11-28T04:10:45.443Z,100596.50
2022-11-28T04:11:51.558Z,100586.88
2022-11-28T04:12:59.622Z,100591.22
2022-11-28T04:14:08.980Z,100595.66
2022-11-28T04:15:18.552Z,100593.00
2022-11-28T04:16:25.472Z,100592.16
2022-11-28T04:17:34.943Z,100593.00
2022-11-28T04:18:49.055Z,100597.44
2022-11-28T04:19:55.954Z,100600.09
2022-11-28T04:21:03.500Z,100606.34
2022-11-28T04:22:13.765Z,100603.69
2022-11-28T04:23:18.512Z,100601.06
2022-11-28T04:24:25.534Z,100612.47
2022-11-28T04:25:30.598Z,100609.72
2022-11-28T04:26:37.187Z,100605.38
2022-11-28T04:27:42.751Z,100603.56
2022-11-28T04:28:47.707Z,100601.78
2022-11-28T04:29:58.963Z,100608.00
2022-11-28T04:31:04.450Z,100610.78
2022-11-28T04:32:07.968Z,100617.75
2022-11-28T04:33:14.237Z,100612.47
2022-11-28T04:34:19.902Z,100608.00
2022-11-28T04:35:26.878Z,100608.00
2022-11-28T04:36:32.070Z,100612.34
2022-11-28T04:37:38.339Z,100611.50
2022-11-28T04:38:42.800Z,100609.72
2022-11-28T04:39:49.047Z,100615.00
2022-11-28T04:40:54.721Z,100619.44
2022-11-28T04:42:00.879Z,100623.88
2022-11-28T04:43:07.727Z,100620.41
2022-11-28T04:44:15.594Z,100619.44
2022-11-28T04:45:25.576Z,100623.88
2022-11-28T04:46:34.170Z,100631.91
2022-11-28T04:47:36.741Z,100631.06
2022-11-28T04:48:38.644Z,100637.19
2022-11-28T04:49:41.287Z,100630.13
2022-11-28T04:50:49.970Z,100632.75
2022-11-28T04:52:00.132Z,100627.56
2022-11-28T04:53:09.378Z,100621.34
2022-11-28T04:54:20.745Z,100624.84
2022-11-28T04:55:30.879Z,100617.75
2022-11-28T04:56:40.944Z,100618.56
2022-11-28T04:57:45.875Z,100618.72
2022-11-28T04:58:50.672Z,100621.44
2022-11-28T04:59:53.777Z,100614.50
2022-11-28T05:00:58.487Z,100611.84
2022-11-28T05:02:04.948Z,100620.72
2022-11-28T05:03:07.773Z,100619.88
2022-11-28T05:04:10.812Z,100615.44
2022-11-28T05:05:16.010Z,100610.16
2022-11-28T05:06:29.557Z,100608.47
2022-11-28T05:07:31.105Z,100614.72
2022-11-28T05:08:34.955Z,100612.06
2022-11-28T05:09:36.994Z,100620.94
2022-11-28T05:10:39.921Z,100622.66
2022-11-28T05:11:41.699Z,100625.16
2022-11-28T05:12:44.272Z,100622.66
2022-11-28T05:13:45.827Z,100618.19
2022-11-28T05:14:48.379Z,100615.66
2022-11-28T05:15:49.922Z,100615.53
2022-11-28T05:16:52.652Z,100625.28
2022-11-28T05:17:54.215Z,100628.88
2022-11-28T05:18:56.844Z,100624.53
2022-11-28T05:19:58.519Z,100619.25
2022-11-28T05:21:01.449Z,100620.09
2022-11-28T05:22:02.967Z,100620.94
2022-11-28T05:23:05.659Z,100614.81
2022-11-28T05:24:09.304Z,100613.88
2022-11-28T05:25:11.813Z,100601.50
2022-11-28T05:26:15.307Z,100607.59
2022-11-28T05:27:18.005Z,100612.06
2022-11-28T05:28:19.545Z,100611.22
2022-11-28T05:29:24.802Z,100615.66
2022-11-28T05:30:28.553Z,100615.66
2022-11-28T05:31:31.447Z,100613.88
2022-11-28T05:32:33.334Z,100626.22
2022-11-28T05:33:35.864Z,100615.66
2022-11-28T05:34:38.602Z,100626.22
2022-11-28T05:35:40.327Z,100622.66
2022-11-28T05:36:43.598Z,100617.47
2022-11-28T05:37:45.117Z,100626.22
2022-11-28T05:38:48.303Z,100624.31
2022-11-28T05:39:51.291Z,100612.06
2022-11-28T05:40:53.907Z,100615.66
2022-11-28T05:41:56.131Z,100608.59
2022-11-28T05:42:58.748Z,100602.31
2022-11-28T05:44:01.026Z,100603.41
2022-11-28T05:45:04.545Z,100606.78
2022-11-28T05:46:06.722Z,100613.97
2022-11-28T05:47:09.383Z,100613.03
2022-11-28T05:48:11.242Z,100618.31
2022-11-28T05:49:13.996Z,100611.22
2022-11-28T05:50:16.628Z,100612.06
2022-11-28T05:51:19.970Z,100619.16
2022-11-28T05:52:22.454Z,100615.66
2022-11-28T05:53:24.356Z,100617.38
2022-11-28T05:54:27.364Z,100620.09
2022-11-28T05:55:30.284Z,100611.22
2022-11-28T05:56:32.805Z,100605.09
2022-11-28T05:57:34.367Z,100610.25
2022-11-28T05:58:37.494Z,100604.25
2022-11-28T05:59:39.067Z,100605.94
2022-11-28T06:00:41.640Z,100610.38
2022-11-28T06:01:43.658Z,100607.75
2022-11-28T06:02:46.210Z,100607.59
2022-11-28T06:03:48.168Z,100605.94
2022-11-28T06:04:50.799Z,100611.09
2022-11-28T06:05:52.350Z,100605.81
2022-11-28T06:06:55.604Z,100602.31
2022-11-28T06:07:57.277Z,100603.19
2022-11-28T06:09:00.160Z,100597.91
2022-11-28T06:10:01.698Z,100596.22
2022-11-28T06:11:06.063Z,100588.31
2022-11-28T06:12:08.724Z,100597.91
2022-11-28T06:13:10.238Z,100596.94
2022-11-28T06:14:13.155Z,100594.31
2022-11-28T06:15:14.731Z,100597.91
2022-11-28T06:16:19.700Z,100594.41
2022-11-28T06:17:21.296Z,100591.88
2022-11-28T06:18:24.208Z,100591.13
2022-11-28T06:19:25.852Z,100594.75
2022-11-28T06:20:28.670Z,100589.47
2022-11-28T06:21:30.997Z,100595.69
2022-11-28T06:22:33.478Z,100587.78
2022-11-28T06:23:36.495Z,100591.25
2022-11-28T06:24:38.093Z,100584.19
2022-11-28T06:25:40.678Z,100586.81
2022-11-28T06:26:43.576Z,100573.63
2022-11-28T06:27:46.042Z,100570.97
2022-11-28T06:28:48.367Z,100568.34
2022-11-28T06:29:50.970Z,100566.63
2022-11-28T06:30:52.500Z,100563.06
2022-11-28T06:31:55.989Z,100568.34
2022-11-28T06:32:57.591Z,100564.84
2022-11-28T06:34:00.194Z,100566.63
2022-11-28T06:35:01.742Z,100575.50
2022-11-28T06:36:05.806Z,100575.41
2022-11-28T06:37:08.524Z,100571.91
2022-11-28T06:38:14.227Z,100571.91
2022-11-28T06:39:18.469Z,100573.63
2022-11-28T06:40:20.077Z,100580.69
2022-11-28T06:41:23.253Z,100571.81
2022-11-28T06:42:26.347Z,100575.28
2022-11-28T06:43:29.436Z,100575.28
2022-11-28T06:44:31.245Z,100572.53
2022-11-28T06:45:34.686Z,100585.66
2022-11-28T06:46:36.295Z,100578.69
2022-11-28T06:47:38.911Z,100583.00
2022-11-28T06:48:40.493Z,100583.75
2022-11-28T06:49:43.259Z,100583.75
2022-11-28T06:50:45.223Z,100586.25
2022-11-28T06:51:47.710Z,100588.78
2022-11-28T06:52:49.473Z,100591.44
2022-11-28T06:53:52.342Z,100599.28
2022-11-28T06:54:54.614Z,100598.28
2022-11-28T06:55:57.220Z,100595.66
2022-11-28T06:56:59.759Z,100594.69
2022-11-28T06:58:03.629Z,100591.22
2022-11-28T06:59:05.218Z,100586.88
2022-11-28T07:00:09.160Z,100593.84
2022-11-28T07:01:14.243Z,100598.28
2022-11-28T07:02:15.919Z,100598.28
2022-11-28T07:03:18.449Z,100593.00
2022-11-28T07:04:21.697Z,100597.44
2022-11-28T07:05:27.465Z,100601.78
2022-11-28T07:06:30.045Z,100599.13
2022-11-28T07:07:31.659Z,100603.47
2022-11-28T07:08:34.575Z,100600.84
2022-11-28T07:09:37.077Z,100599.84
2022-11-28T07:10:38.600Z,100597.22
2022-11-28T07:11:42.487Z,100597.22
2022-11-28T07:12:44.010Z,100607.06
2022-11-28T07:13:48.691Z,100601.69
2022-11-28T07:14:51.206Z,100599.84
2022-11-28T07:15:52.879Z,100598.06
2022-11-28T07:16:55.400Z,100605.03
2022-11-28T07:17:57.008Z,100601.56
2022-11-28T07:19:00.313Z,100600.72
2022-11-28T07:20:01.833Z,100604.19
2022-11-28T07:21:04.496Z,100595.31
2022-11-28T07:22:06.975Z,100604.94
2022-11-28T07:23:08.562Z,100598.69
2022-11-28T07:24:11.075Z,100603.97
2022-11-28T07:25:14.692Z,100602.19
2022-11-28T07:26:18.864Z,100604.81
2022-11-28T07:27:20.409Z,100604.81
2022-11-28T07:28:23.640Z,100607.38
2022-11-28T07:29:36.117Z,100608.31
2022-11-28T07:30:37.672Z,100610.09
2022-11-28T07:31:40.208Z,100609.16
2022-11-28T07:32:41.742Z,100611.81
2022-11-28T07:33:46.482Z,100606.53
2022-11-28T07:34:50.265Z,100607.38
2022-11-28T07:35:52.940Z,100617.09
2022-11-28T07:36:55.467Z,100607.38
2022-11-28T07:37:57.035Z,100612.66
2022-11-28T07:39:01.394Z,100607.38
2022-11-28T07:40:03.814Z,100610.00
2022-11-28T07:41:07.945Z,100613.47
2022-11-28T07:42:11.059Z,100614.31
2022-11-28T07:43:12.568Z,100611.56
2022-11-28T07:44:17.704Z,100611.56
2022-11-28T07:45:22.896Z,100609.78
2022-11-28T07:46:26.499Z,100612.44
2022-11-28T07:47:28.191Z,100619.38
2022-11-28T07:48:30.809Z,100615.78
2022-11-28T07:49:33.435Z,100617.59
2022-11-28T07:50:35.045Z,100622.03
2022-11-28T07:51:37.546Z,100612.28
2022-11-28T07:52:39.080Z,100614.09
2022-11-28T07:53:42.229Z,100607.84
2022-11-28T07:54:44.182Z,100593.78
2022-11-28T07:55:46.806Z,100601.63
2022-11-28T07:57:12.321Z,100597.19
2022-11-28T07:58:10.955Z,100603.28
2022-11-28T07:59:13.876Z,100611.97
2022-11-28T08:00:17.772Z,100602.25
2022-11-28T08:01:22.241Z,100613.66
2022-11-28T08:02:25.888Z,100617.97
2022-11-28T08:03:27.427Z,100606.47
2022-11-28T08:04:29.978Z,100606.47
2022-11-28T08:05:31.543Z,100608.16
2022-11-28T08:06:37.905Z,100608.97
2022-11-28T08:07:39.557Z,100615.09
2022-11-28T08:08:42.370Z,100611.63
2022-11-28T08:09:48.079Z,100614.25
2022-11-28T08:10:49.609Z,100620.41
2022-11-28T08:11:52.476Z,100614.16
2022-11-28T08:12:54.016Z,100620.41
2022-11-28T08:13:58.072Z,100623.78
2022-11-28T08:15:01.742Z,100622.09
2022-11-28T08:16:04.757Z,100621.25
2022-11-28T08:17:09.534Z,100622.94
2022-11-28T08:18:12.915Z,100617.66
2022-11-28T08:19:15.385Z,100627.38
2022-11-28T08:20:18.194Z,100626.44
2022-11-28T08:21:23.223Z,100631.59
2022-11-28T08:22:25.755Z,100632.44
2022-11-28T08:23:27.372Z,100633.28
2022-11-28T08:24:29.925Z,100628.84
2022-11-28T08:25:31.523Z,100626.06
2022-11-28T08:26:34.741Z,100626.94
2022-11-28T08:27:37.242Z,100628.63
2022-11-28T08:28:39.142Z,100636.41
2022-11-28T08:29:42.177Z,100627.53
2022-11-28T08:30:44.463Z,100628.25
2022-11-28T08:31:47.199Z,100622.97
2022-11-28T08:32:50.060Z,100628.16
2022-11-28T08:33:54.740Z,100629.13
2022-11-28T08:34:57.267Z,100622.88
2022-11-28T08:36:03.964Z,100635.16
2022-11-28T08:37:06.661Z,100622.88
2022-11-28T08:38:08.209Z,100629.00
2022-11-28T08:39:27.531Z,100629.88
2022-11-28T08:40:30.133Z,100631.53
2022-11-28T08:41:32.735Z,100635.16
2022-11-28T08:42:35.282Z,100633.34
2022-11-28T08:43:37.911Z,100629.88
2022-11-28T08:44:40.575Z,100634.16
2022-11-28T08:45:42.164Z,100633.34
2022-11-28T08:46:44.965Z,100636.00
2022-11-28T08:47:47.556Z,100631.44
2022-11-28T08:48:51.599Z,100627.00
2022-11-28T08:49:54.087Z,100628.66
2022-11-28T08:50:56.628Z,100628.56
2022-11-28T08:51:59.124Z,100625.06
2022-11-28T08:53:07.506Z,100630.25
2022-11-28T08:54:10.606Z,100625.06
2022-11-28T08:55:13.143Z,100633.84
2022-11-28T08:56:16.412Z,100630.25
2022-11-28T08:57:18.912Z,100631.09
2022-11-28T08:58:20.449Z,100644.19
2022-11-28T08:59:23.151Z,100628.31
2022-11-28T09:00:24.899Z,100637.09
2022-11-28T09:01:28.496Z,100630.13
2022-11-28T09:02:31.333Z,100634.47
2022-11-28T09:03:32.991Z,100640.69
2022-11-28T09:04:36.889Z,100638.06
2022-11-28T09:05:38.456Z,100638.06
2022-11-28T09:06:41.385Z,100633.75
2022-11-28T09:07:42.988Z,100638.81
2022-11-28T09:08:45.903Z,100631.81
2022-11-28T09:09:47.714Z,100634.56
2022-11-28T09:10:50.559Z,100633.50
2022-11-28T09:11:53.609Z,100639.75
2022-11-28T09:12:56.089Z,100639.63
2022-11-28T09:13:58.591Z,100644.91
2022-11-28T09:15:01.045Z,100643.13
2022-11-28T09:16:04.068Z,100644.09
2022-11-28T09:17:06.675Z,100643.13
2022-11-28T09:18:08.552Z,100644.09
2022-11-28T09:19:11.068Z,100648.41
2022-11-28T09:20:14.250Z,100646.75
2022-11-28T09:21:16.857Z,100654.53
2022-11-28T09:22:19.365Z,100644.81
2022-11-28T09:23:21.921Z,100649.25
2022-11-28T09:24:24.504Z,100644.81
2022-11-28T09:25:26.015Z,100646.50
2022-11-28T09:26:29.795Z,100649.16
2022-11-28T09:27:32.288Z,100645.53
2022-11-28T09:28:34.795Z,100645.53
2022-11-28T09:29:37.276Z,100650.72
2022-11-28T09:30:39.942Z,100656.00
2022-11-28T09:31:47.116Z,100655.16
2022-11-28T09:32:49.710Z,100649.03
2022-11-28T09:33:52.430Z,100656.09
2022-11-28T09:34:54.443Z,100658.75
2022-11-28T09:35:58.649Z,100656.84
2022-11-28T09:37:04.688Z,100662.16
2022-11-28T09:38:07.904Z,100656.84
2022-11-28T09:39:10.461Z,100660.44
2022-11-28T09:40:21.009Z,100669.22
2022-11-28T09:41:33.538Z,100663.94
2022-11-28T09:42:41.266Z,100663.00
2022-11-28T09:43:48.582Z,100666.47
2022-11-28T09:44:56.709Z,100656.72
2022-11-28T09:46:01.402Z,100661.91
2022-11-28T09:47:09.952Z,100664.56
2022-11-28T09:48:26.347Z,100662.63
2022-11-28T09:49:40.755Z,100667.94
2022-11-28T09:50:45.044Z,100663.47
2022-11-28T09:51:52.886Z,100665.91
2022-11-28T09:53:01.459Z,100661.47
2022-11-28T09:54:11.097Z,100664.72
2022-11-28T09:55:19.680Z,100668.22
2022-11-28T09:56:22.444Z,100660.38
2022-11-28T09:57:31.304Z,100664.59
2022-11-28T09:58:43.022Z,100664.59
2022-11-28T09:59:48.445Z,100659.19
2022-11-28T10:00:58.439Z,100660.75
2022-11-28T10:02:14.766Z,100655.47
2022-11-28T10:03:33.670Z,100659.06
2022-11-28T10:04:42.765Z,100659.06
2022-11-28T10:05:54.578Z,100661.63
2022-11-28T10:07:06.193Z,100660.75
2022-11-28T10:08:22.639Z,100655.47
2022-11-28T10:09:36.256Z,100653.69
2022-11-28T10:10:43.361Z,100657.88
2022-11-28T10:11:57.202Z,100654.41
2022-11-28T10:13:07.515Z,100656.31
2022-11-28T10:14:25.904Z,100657.16
2022-11-28T10:15:45.526Z,100658.03
2022-11-28T10:16:59.698Z,100657.88
2022-11-28T10:18:20.429Z,100656.94
2022-11-28T10:19:57.396Z,100656.94
2022-11-28T10:20:58.882Z,100656.09
2022-11-28T10:22:06.583Z,100647.94
2022-11-28T10:23:15.843Z,100648.78
2022-11-28T10:24:22.050Z,100650.47
2022-11-28T10:25:30.070Z,100653.97
2022-11-28T10:26:36.418Z,100650.34
2022-11-28T10:27:40.053Z,100649.50
2022-11-28T10:28:44.753Z,100647.59
2022-11-28T10:29:50.516Z,100646.59
2022-11-28T10:30:58.527Z,100650.00
2022-11-28T10:32:04.673Z,100647.34
2022-11-28T10:33:20.520Z,100642.06
2022-11-28T10:34:31.089Z,100647.34
2022-11-28T10:35:43.635Z,100649.06
2022-11-28T10:36:55.386Z,100644.56
2022-11-28T10:37:59.598Z,100654.34
2022-11-28T10:39:10.002Z,100645.66
2022-11-28T10:40:29.104Z,100652.50
2022-11-28T10:41:38.864Z,100645.44
2022-11-28T10:42:49.447Z,100643.53
2022-11-28T10:43:59.558Z,100647.72
2022-11-28T10:45:19.302Z,100648.59
2022-11-28T10:46:42.161Z,100648.59
2022-11-28T10:48:37.890Z,100648.44
2022-11-28T10:49:40.529Z,100643.16
2022-11-28T10:50:50.782Z,100653.63
2022-11-28T10:52:01.903Z,100644.97
2022-11-28T10:53:19.022Z,100643.06
2022-11-28T10:54:41.630Z,100645.69
2022-11-28T10:55:54.512Z,100648.44
2022-11-28T10:57:07.756Z,100647.50
2022-11-28T10:58:21.211Z,100642.22
2022-11-28T10:59:35.952Z,100639.44
2022-11-28T11:00:38.745Z,100643.91
2022-11-28T11:01:47.253Z,100639.44
2022-11-28T11:02:54.958Z,100634.13
2022-11-28T11:03:57.776Z,100644.72
2022-11-28T11:05:00.694Z,100638.63
2022-11-28T11:06:03.847Z,100640.28
2022-11-28T11:07:19.582Z,100645.56
2022-11-28T11:08:27.302Z,100641.13
2022-11-28T11:09:29.817Z,100641.13
2022-11-28T11:10:38.489Z,100644.63
2022-11-28T11:11:51.145Z,100641.13
2022-11-28T11:12:53.879Z,100646.41
2022-11-28T11:13:59.147Z,100635.97
2022-11-28T11:15:16.885Z,100644.00
2022-11-28T11:16:19.460Z,100634.38
2022-11-28T11:17:31.241Z,100641.38
2022-11-28T11:18:39.222Z,100642.31
2022-11-28T11:19:41.146Z,100641.59
2022-11-28T11:20:44.218Z,100642.53
2022-11-28T11:21:59.895Z,100637.38
2022-11-28T11:23:12.660Z,100640.03
2022-11-28T11:24:18.937Z,100637.50
2022-11-28T11:25:20.605Z,100643.75
2022-11-28T11:26:26.305Z,100635.91
2022-11-28T11:27:27.956Z,100637.00
2022-11-28T11:28:41.463Z,100640.59
2022-11-28T11:29:45.073Z,100638.91
2022-11-28T11:30:48.725Z,100639.03
2022-11-28T11:31:53.159Z,100646.22
2022-11-28T11:32:56.242Z,100640.13
2022-11-28T11:34:04.278Z,100640.00
2022-11-28T11:35:06.780Z,100643.47
2022-11-28T11:36:23.363Z,100636.38
2022-11-28T11:37:34.950Z,100638.09
2022-11-28T11:38:38.364Z,100652.03
2022-11-28T11:39:49.847Z,100642.28
2022-11-28T11:40:53.269Z,100644.94
2022-11-28T11:42:12.862Z,100642.28
2022-11-28T11:43:26.931Z,100633.38
2022-11-28T11:44:34.061Z,100639.53
2022-11-28T11:45:37.295Z,100637.00
2022-11-28T11:46:50.845Z,100638.81
2022-11-28T11:47:53.550Z,100641.44
2022-11-28T11:48:56.087Z,100636.25
2022-11-28T11:50:06.004Z,100642.41
2022-11-28T11:51:21.542Z,100643.38
2022-11-28T11:52:25.813Z,100638.19
2022-11-28T11:53:28.339Z,100646.97
2022-11-28T11:54:30.431Z,100641.78
2022-11-28T11:55:41.529Z,100649.72
2022-11-28T11:56:47.736Z,100648.06
2022-11-28T11:57:55.130Z,100648.06
2022-11-28T11:59:00.051Z,100656.81
2022-11-28T12:00:08.019Z,100651.66
2022-11-28T12:01:14.445Z,100655.16
2022-11-28T12:02:24.199Z,100656.00
2022-11-28T12:03:32.073Z,100656.09
2022-11-28T12:04:51.221Z,100660.53
2022-11-28T12:06:16.079Z,100657.16
2022-11-28T12:07:27.303Z,100662.47
2022-11-28T12:08:35.669Z,100662.47
2022-11-28T12:09:44.492Z,100666.06
2022-11-28T12:10:54.467Z,100652.97
2022-11-28T12:12:01.868Z,100658.13
2022-11-28T12:13:05.200Z,100655.47
2022-11-28T12:14:26.904Z,100655.47
2022-11-28T12:15:39.559Z,100664.38
2022-11-28T12:16:51.432Z,100656.41
2022-11-28T12:18:04.706Z,100657.41
2022-11-28T12:19:20.139Z,100654.63
2022-11-28T12:20:33.592Z,100663.41
2022-11-28T12:21:44.739Z,100655.47
2022-11-28T12:22:55.902Z,100655.47
2022-11-28T12:24:12.434Z,100660.75
2022-11-28T12:25:24.476Z,100655.47
2022-11-28T12:26:37.554Z,100658.13
2022-11-28T12:27:53.811Z,100665.22
2022-11-28T12:29:14.839Z,100658.97
2022-11-28T12:30:27.482Z,100659.91
2022-11-28T12:31:45.323Z,100662.47
2022-11-28T12:32:58.620Z,100661.38
2022-11-28T12:34:11.511Z,100657.88
2022-11-28T12:35:24.479Z,100656.94